Terminal Aerodrome Forecast
Issued by NWS Detroit/Pontiac, MI

Current Version | Previous Version | Text Only | Print | Product List | Glossary On
Versions: 1 2 3 4 5 6 7 8 9 10 11 12 13 14 15 16 17 18 19 20 21 22 23 24 25 26 27 28 29
373
FTUS43 KDTX 230736 AAA
TAFDTW
TAF AMD
KDTW 230736Z 2308/2412 22010KT 3SM BR SCT028 BKN045 BKN060
      TEMPO 2308/2312 2SM BR BKN028 OVC045
     FM231300 24008KT 6SM BR SCT022 BKN040
     FM231600 31007KT P6SM SCT040 SCT150
     FM232200 01008KT 6SM HZ SCT035 BKN100
     FM240200 02007KT 5SM BR BKN025
     FM240600 03006KT 2SM -RA BR OVC008=

USA.gov is the U.S. government's official web portal to all federal, state and local government web resources and services.